Air Navigation Services of Czech Republic
Airport: LKCV Updated:  20.09.2021 16:58:27  UTC
 METAR LKCV 20.09. 17:00 ...
METAR LKCV 201700Z 28003KT 9999 FEW043 OVC060 12/07 Q1021 NOSIG RMK BLU BLU=
 TAF LKCV 20.09. 11:00 ...
TAF LKCV 201100Z 2012/2112 32005KT 9999 BKN040      TEMPO 2012/2018 03007KT      BECMG 2017/2019 VRB02KT      TEMPO 2100/2106 BKN020      BECMG 2109/2111 32007KT=